createdAt,value
2023-07-20T00:01:39.618Z,44.93
2023-07-20T00:02:42.256Z,44.92
2023-07-20T00:03:39.583Z,44.91
2023-07-20T00:04:39.488Z,44.94
2023-07-20T00:05:39.467Z,44.92
2023-07-20T00:06:39.458Z,44.93
2023-07-20T00:07:39.481Z,44.91
2023-07-20T00:08:39.453Z,44.89
2023-07-20T00:09:39.427Z,44.91
2023-07-20T00:10:39.407Z,44.90
2023-07-20T00:11:39.389Z,44.88
2023-07-20T00:12:39.391Z,44.88
2023-07-20T00:13:39.376Z,44.87
2023-07-20T00:14:39.383Z,44.88
2023-07-20T00:15:39.340Z,44.91
2023-07-20T00:16:39.441Z,44.90
2023-07-20T00:17:39.326Z,44.87
2023-07-20T00:18:39.296Z,44.90
2023-07-20T00:19:39.294Z,44.88
2023-07-20T00:20:39.298Z,44.88
2023-07-20T00:21:39.282Z,44.89
2023-07-20T00:22:39.296Z,44.89
2023-07-20T00:23:39.292Z,44.87
2023-07-20T00:24:39.263Z,44.86
2023-07-20T00:25:39.228Z,44.89
2023-07-20T00:26:39.238Z,44.86
2023-07-20T00:27:39.226Z,44.90
2023-07-20T00:28:39.209Z,44.86
2023-07-20T00:29:39.236Z,44.85
2023-07-20T00:30:39.257Z,44.84
2023-07-20T00:31:39.194Z,44.87
2023-07-20T00:32:39.222Z,44.88
2023-07-20T00:33:39.182Z,44.87
2023-07-20T00:34:39.169Z,44.85
2023-07-20T00:35:39.161Z,44.88
2023-07-20T00:36:39.138Z,44.90
2023-07-20T00:37:39.131Z,44.88
2023-07-20T00:38:39.128Z,44.85
2023-07-20T00:39:39.115Z,44.86
2023-07-20T00:40:39.125Z,44.86
2023-07-20T00:41:39.116Z,44.87
2023-07-20T00:42:39.072Z,44.87
2023-07-20T00:43:39.072Z,44.87
2023-07-20T00:44:39.070Z,44.84
2023-07-20T00:45:39.054Z,44.89
2023-07-20T00:46:39.118Z,44.83
2023-07-20T00:47:39.078Z,44.86
2023-07-20T00:48:39.025Z,44.85
2023-07-20T00:49:39.037Z,44.87
2023-07-20T00:50:39.015Z,44.86
2023-07-20T00:51:38.989Z,44.85
2023-07-20T00:52:38.998Z,44.83
2023-07-20T00:53:38.964Z,44.84
2023-07-20T00:54:38.970Z,44.85
2023-07-20T00:55:38.955Z,44.83
2023-07-20T00:56:39.015Z,44.83
2023-07-20T00:57:39.028Z,44.84
2023-07-20T00:58:39.084Z,44.87
2023-07-20T00:59:39.109Z,44.83
2023-07-20T01:00:39.113Z,44.81
2023-07-20T01:01:39.223Z,44.82
2023-07-20T01:02:39.288Z,44.78
2023-07-20T01:03:39.270Z,44.80
2023-07-20T01:04:39.281Z,44.76
2023-07-20T01:05:39.329Z,44.77
2023-07-20T01:06:39.353Z,44.76
2023-07-20T01:07:39.394Z,44.79
2023-07-20T01:08:39.448Z,44.75
2023-07-20T01:09:39.461Z,44.74
2023-07-20T01:10:39.494Z,44.75
2023-07-20T01:11:39.532Z,44.73
2023-07-20T01:12:39.566Z,44.73
2023-07-20T01:13:39.604Z,44.76
2023-07-20T01:14:39.672Z,44.76
2023-07-20T01:15:39.669Z,44.74
2023-07-20T01:16:39.768Z,44.76
2023-07-20T01:17:39.796Z,44.74
2023-07-20T01:18:39.768Z,44.77
2023-07-20T01:19:39.801Z,44.75
2023-07-20T01:20:39.842Z,44.73
2023-07-20T01:21:39.896Z,44.72
2023-07-20T01:22:40.051Z,44.71
2023-07-20T01:23:40.084Z,44.70
2023-07-20T01:24:40.053Z,44.70
2023-07-20T01:25:40.030Z,44.68
2023-07-20T01:26:40.104Z,44.70
2023-07-20T01:27:40.142Z,44.67
2023-07-20T01:28:40.167Z,44.67
2023-07-20T01:29:40.205Z,44.69
2023-07-20T01:30:40.237Z,44.67
2023-07-20T01:31:40.320Z,44.67
2023-07-20T01:32:40.377Z,44.67
2023-07-20T01:33:40.336Z,44.63
2023-07-20T01:34:40.389Z,44.63
2023-07-20T01:35:40.446Z,44.60
2023-07-20T01:36:40.507Z,44.60
2023-07-20T01:37:40.529Z,44.56
2023-07-20T01:38:40.543Z,44.57
2023-07-20T01:39:40.599Z,44.58
2023-07-20T01:40:40.626Z,44.55
2023-07-20T01:41:40.648Z,44.56
2023-07-20T01:42:40.688Z,44.56
2023-07-20T01:43:40.749Z,44.55
2023-07-20T01:44:40.751Z,44.56
2023-07-20T01:45:40.885Z,44.53
2023-07-20T01:46:40.844Z,44.53
2023-07-20T01:47:41.023Z,44.50
2023-07-20T01:48:40.944Z,44.50
2023-07-20T01:49:40.973Z,44.48
2023-07-20T01:50:40.973Z,44.48
2023-07-20T01:51:41.077Z,44.47
2023-07-20T01:52:41.091Z,44.46
2023-07-20T01:53:41.101Z,44.49
2023-07-20T01:54:41.237Z,44.45
2023-07-20T01:55:41.180Z,44.46
2023-07-20T01:56:41.249Z,44.45
2023-07-20T01:57:41.270Z,44.41
2023-07-20T01:58:41.365Z,44.41
2023-07-20T01:59:41.364Z,44.41
2023-07-20T02:00:41.395Z,44.40
2023-07-20T02:01:41.638Z,44.42
2023-07-20T02:02:41.530Z,44.41
2023-07-20T02:03:41.483Z,44.43
2023-07-20T02:04:41.555Z,44.41
2023-07-20T02:05:41.610Z,44.38
2023-07-20T02:06:41.629Z,44.40
2023-07-20T02:07:41.684Z,44.39
2023-07-20T02:08:41.705Z,44.38
2023-07-20T02:09:41.749Z,44.34
2023-07-20T02:10:41.821Z,44.40
2023-07-20T02:11:41.861Z,44.37
2023-07-20T02:12:41.859Z,44.36
2023-07-20T02:13:41.899Z,44.35
2023-07-20T02:14:41.966Z,44.36
2023-07-20T02:15:42.014Z,44.36
2023-07-20T02:16:42.095Z,44.36
2023-07-20T02:17:42.128Z,44.37
2023-07-20T02:18:42.112Z,44.37
2023-07-20T02:19:42.149Z,44.36
2023-07-20T02:20:42.187Z,44.37
2023-07-20T02:21:42.248Z,44.35
2023-07-20T02:22:42.288Z,44.35
2023-07-20T02:23:42.349Z,44.35
2023-07-20T02:24:42.374Z,44.35
2023-07-20T02:25:42.436Z,44.34
2023-07-20T02:26:42.453Z,44.35
2023-07-20T02:27:42.508Z,44.36
2023-07-20T02:28:42.535Z,44.35
2023-07-20T02:29:42.571Z,44.33
2023-07-20T02:30:42.641Z,44.34
2023-07-20T02:31:42.746Z,44.35
2023-07-20T02:32:42.739Z,44.33
2023-07-20T02:33:42.739Z,44.33
2023-07-20T02:34:42.798Z,44.34
2023-07-20T02:35:42.793Z,44.31
2023-07-20T02:36:42.881Z,44.33
2023-07-20T02:37:42.894Z,44.30
2023-07-20T02:38:42.945Z,44.31
2023-07-20T02:39:42.968Z,44.32
2023-07-20T02:40:43.067Z,44.32
2023-07-20T02:41:43.135Z,44.31
2023-07-20T02:42:43.145Z,44.31
2023-07-20T02:43:43.177Z,44.32
2023-07-20T02:44:43.225Z,44.31
2023-07-20T02:45:43.263Z,44.32
2023-07-20T02:46:43.353Z,44.33
2023-07-20T02:47:43.386Z,44.31
2023-07-20T02:48:43.379Z,44.29
2023-07-20T02:49:43.419Z,44.28
2023-07-20T02:50:43.459Z,44.30
2023-07-20T02:51:43.517Z,44.32
2023-07-20T02:52:43.519Z,44.26
2023-07-20T02:53:43.602Z,44.29
2023-07-20T02:54:43.613Z,44.27
2023-07-20T02:55:43.646Z,44.29
2023-07-20T02:56:43.707Z,44.27
2023-07-20T02:57:43.740Z,44.25
2023-07-20T02:58:43.806Z,44.25
2023-07-20T02:59:43.838Z,44.24
2023-07-20T03:00:43.923Z,44.24
2023-07-20T03:01:43.926Z,44.24
2023-07-20T03:02:44.005Z,44.23
2023-07-20T03:03:44.028Z,44.21
2023-07-20T03:04:44.053Z,44.22
2023-07-20T03:05:44.110Z,44.22
2023-07-20T03:06:44.166Z,44.19
2023-07-20T03:07:44.164Z,44.21
2023-07-20T03:08:44.220Z,44.18
2023-07-20T03:09:44.284Z,44.20
2023-07-20T03:10:44.332Z,44.21
2023-07-20T03:11:44.369Z,44.18
2023-07-20T03:12:44.407Z,44.17
2023-07-20T03:13:44.478Z,44.16
2023-07-20T03:14:44.497Z,44.17
2023-07-20T03:15:44.549Z,44.17
2023-07-20T03:16:44.656Z,44.18
2023-07-20T03:17:44.655Z,44.18
2023-07-20T03:18:44.670Z,44.17
2023-07-20T03:19:44.725Z,44.18
2023-07-20T03:20:44.730Z,44.18
2023-07-20T03:21:44.778Z,44.16
2023-07-20T03:22:44.887Z,44.14
2023-07-20T03:23:44.887Z,44.16
2023-07-20T03:24:44.959Z,44.13
2023-07-20T03:25:44.966Z,44.12
2023-07-20T03:26:45.053Z,44.14
2023-07-20T03:27:45.066Z,44.12
2023-07-20T03:28:45.073Z,44.11
2023-07-20T03:29:45.168Z,44.13
2023-07-20T03:30:45.211Z,44.12
2023-07-20T03:31:45.257Z,44.12
2023-07-20T03:32:45.279Z,44.10
2023-07-20T03:33:45.285Z,44.10
2023-07-20T03:34:45.376Z,44.11
2023-07-20T03:35:45.413Z,44.10
2023-07-20T03:36:45.448Z,44.14
2023-07-20T03:37:45.461Z,44.10
2023-07-20T03:38:45.554Z,44.09
2023-07-20T03:39:45.587Z,44.06
2023-07-20T03:40:45.634Z,44.08
2023-07-20T03:41:45.686Z,44.07
2023-07-20T03:42:45.709Z,44.10
2023-07-20T03:43:45.753Z,44.06
2023-07-20T03:44:45.783Z,44.07
2023-07-20T03:45:45.841Z,44.05
2023-07-20T03:46:45.901Z,44.03
2023-07-20T03:47:46.001Z,44.02
2023-07-20T03:48:45.969Z,44.03
2023-07-20T03:49:46.041Z,44.04
2023-07-20T03:50:46.055Z,44.07
2023-07-20T03:51:46.068Z,44.03
2023-07-20T03:52:46.130Z,44.02
2023-07-20T03:53:46.168Z,44.03
2023-07-20T03:54:46.237Z,44.05
2023-07-20T03:55:46.257Z,44.04
2023-07-20T03:56:46.297Z,44.03
2023-07-20T03:57:46.358Z,44.04
2023-07-20T03:58:46.378Z,44.03
2023-07-20T03:59:46.462Z,44.00
2023-07-20T04:00:46.462Z,44.02
2023-07-20T04:01:46.597Z,44.01
2023-07-20T04:02:46.699Z,44.04
2023-07-20T04:03:49.467Z,44.03
2023-07-20T04:04:46.607Z,44.00
2023-07-20T04:05:46.587Z,43.98
2023-07-20T04:06:46.598Z,43.99
2023-07-20T04:07:46.617Z,43.99
2023-07-20T04:08:46.624Z,43.99
2023-07-20T04:09:46.613Z,43.98
2023-07-20T04:10:46.643Z,43.97
2023-07-20T04:11:46.621Z,43.97
2023-07-20T04:12:46.612Z,43.95
2023-07-20T04:13:46.610Z,43.94
2023-07-20T04:14:46.629Z,43.95
2023-07-20T04:15:46.600Z,43.96
2023-07-20T04:16:46.644Z,43.95
2023-07-20T04:17:46.728Z,43.94
2023-07-20T04:18:46.582Z,43.92
2023-07-20T04:19:46.574Z,43.89
2023-07-20T04:20:46.610Z,43.90
2023-07-20T04:21:46.600Z,43.92
2023-07-20T04:22:46.607Z,43.91
2023-07-20T04:23:46.577Z,43.90
2023-07-20T04:24:46.579Z,43.86
2023-07-20T04:25:46.573Z,43.87
2023-07-20T04:26:46.574Z,43.89
2023-07-20T04:27:46.564Z,43.87
2023-07-20T04:28:46.561Z,43.86
2023-07-20T04:29:46.568Z,43.85
2023-07-20T04:30:46.606Z,43.86
2023-07-20T04:31:46.603Z,43.83
2023-07-20T04:32:46.613Z,43.83
2023-07-20T04:33:46.582Z,43.87
2023-07-20T04:34:46.557Z,43.84
2023-07-20T04:35:46.586Z,43.83
2023-07-20T04:36:47.548Z,43.84
2023-07-20T04:37:46.572Z,43.85
2023-07-20T04:38:46.507Z,43.81
2023-07-20T04:39:46.513Z,43.83
2023-07-20T04:40:46.515Z,43.81
2023-07-20T04:41:46.523Z,43.81
2023-07-20T04:42:46.510Z,43.80
2023-07-20T04:43:46.551Z,43.79
2023-07-20T04:44:46.578Z,43.75
2023-07-20T04:45:46.634Z,43.79
2023-07-20T04:46:47.600Z,43.79
2023-07-20T04:47:46.742Z,43.77
2023-07-20T04:48:46.761Z,43.79
2023-07-20T04:49:46.773Z,43.77
2023-07-20T04:50:46.955Z,43.75
2023-07-20T04:51:46.924Z,43.75
2023-07-20T04:52:46.926Z,43.76
2023-07-20T04:53:47.006Z,43.76
2023-07-20T04:54:47.007Z,43.74
2023-07-20T04:55:47.071Z,43.73
2023-07-20T04:56:48.517Z,43.71
2023-07-20T04:57:47.109Z,43.73
2023-07-20T04:58:47.104Z,43.75
2023-07-20T04:59:47.075Z,43.74
2023-07-20T05:00:47.090Z,43.72
2023-07-20T05:01:54.979Z,43.73
2023-07-20T05:02:47.177Z,43.73
2023-07-20T05:03:47.675Z,43.73
2023-07-20T05:04:47.087Z,43.72
2023-07-20T05:05:49.592Z,43.70
2023-07-20T05:06:47.062Z,43.74
2023-07-20T05:07:47.088Z,43.75
2023-07-20T05:08:47.053Z,43.73
2023-07-20T05:09:47.056Z,43.74
2023-07-20T05:10:47.048Z,43.71
2023-07-20T05:11:47.040Z,43.72
2023-07-20T05:12:47.068Z,43.68
2023-07-20T05:13:47.030Z,43.67
2023-07-20T05:14:47.056Z,43.70
2023-07-20T05:15:47.042Z,43.70
2023-07-20T05:16:47.078Z,43.68
2023-07-20T05:17:47.064Z,43.69
2023-07-20T05:18:47.022Z,43.68
2023-07-20T05:19:47.074Z,43.68
2023-07-20T05:20:47.013Z,43.70
2023-07-20T05:21:47.024Z,43.63
2023-07-20T05:22:47.034Z,43.66
2023-07-20T05:23:47.030Z,43.65
2023-07-20T05:24:47.062Z,43.66
2023-07-20T05:25:47.944Z,43.64
2023-07-20T05:26:46.982Z,43.64
2023-07-20T05:27:46.998Z,43.65
2023-07-20T05:28:46.947Z,43.64
2023-07-20T05:29:46.992Z,43.63
2023-07-20T05:30:46.976Z,43.63
2023-07-20T05:31:46.961Z,43.63
2023-07-20T05:32:46.965Z,43.61
2023-07-20T05:33:46.950Z,43.61
2023-07-20T05:34:46.919Z,43.61
2023-07-20T05:35:46.933Z,43.61
2023-07-20T05:36:46.906Z,43.59
2023-07-20T05:37:46.883Z,43.62
2023-07-20T05:38:46.878Z,43.60
2023-07-20T05:39:46.877Z,43.59
2023-07-20T05:40:46.867Z,43.60
2023-07-20T05:41:46.840Z,43.58
2023-07-20T05:42:46.813Z,43.56
2023-07-20T05:43:46.795Z,43.55
2023-07-20T05:44:46.811Z,43.57
2023-07-20T05:45:46.820Z,43.56
2023-07-20T05:46:57.040Z,43.55
2023-07-20T05:47:47.796Z,43.58
2023-07-20T05:48:46.722Z,43.57
2023-07-20T05:49:46.780Z,43.59
2023-07-20T05:50:46.720Z,43.58
2023-07-20T05:51:46.744Z,43.57
2023-07-20T05:52:46.742Z,43.59
2023-07-20T05:53:46.711Z,43.59
2023-07-20T05:54:46.703Z,43.57
2023-07-20T05:55:46.717Z,43.56
2023-07-20T05:56:46.721Z,43.54
2023-07-20T05:57:46.706Z,43.58
2023-07-20T05:58:46.685Z,43.56
2023-07-20T05:59:46.714Z,43.59
2023-07-20T06:00:46.766Z,43.58
2023-07-20T06:01:46.868Z,43.55
2023-07-20T06:02:46.910Z,43.55
2023-07-20T06:03:46.879Z,43.56
2023-07-20T06:04:46.943Z,43.53
2023-07-20T06:05:47.036Z,43.53
2023-07-20T06:06:47.026Z,43.52
2023-07-20T06:07:47.088Z,43.54
2023-07-20T06:08:47.117Z,43.54
2023-07-20T06:09:47.126Z,43.50
2023-07-20T06:10:47.168Z,43.47
2023-07-20T06:11:47.192Z,43.47
2023-07-20T06:12:47.270Z,43.48
2023-07-20T06:13:47.295Z,43.47
2023-07-20T06:14:47.347Z,43.47
2023-07-20T06:15:47.380Z,43.47
2023-07-20T06:16:47.465Z,43.48
2023-07-20T06:17:47.504Z,43.48
2023-07-20T06:18:47.529Z,43.49
2023-07-20T06:19:47.588Z,43.47
2023-07-20T06:20:47.632Z,43.49
2023-07-20T06:21:47.701Z,43.49
2023-07-20T06:22:47.756Z,43.51
2023-07-20T06:23:47.773Z,43.47
2023-07-20T06:24:47.819Z,43.48
2023-07-20T06:25:47.811Z,43.44
2023-07-20T06:26:47.875Z,43.44
2023-07-20T06:27:47.929Z,43.43
2023-07-20T06:28:47.964Z,43.43
2023-07-20T06:29:48.008Z,43.44
2023-07-20T06:30:48.026Z,43.43
2023-07-20T06:31:48.101Z,43.41
2023-07-20T06:32:48.267Z,43.43
2023-07-20T06:33:48.328Z,43.41
2023-07-20T06:34:48.303Z,43.39
2023-07-20T06:35:48.275Z,43.39
2023-07-20T06:36:48.300Z,43.35
2023-07-20T06:37:48.364Z,43.33
2023-07-20T06:40:48.361Z,43.29
2023-07-20T06:41:48.332Z,43.26
2023-07-20T06:43:49.085Z,43.23
2023-07-20T06:44:48.315Z,43.23
2023-07-20T06:45:48.344Z,43.20
2023-07-20T06:46:48.295Z,43.18
2023-07-20T06:47:48.306Z,43.17
2023-07-20T06:49:48.276Z,43.12
2023-07-20T06:50:48.511Z,43.17
2023-07-20T06:51:48.306Z,43.13
2023-07-20T06:52:48.288Z,43.08
2023-07-20T06:53:48.289Z,43.06
2023-07-20T06:57:49.617Z,43.07
2023-07-20T06:58:48.182Z,43.07
2023-07-20T06:59:48.204Z,43.06
2023-07-20T07:00:48.203Z,43.04
2023-07-20T07:01:48.227Z,43.04
2023-07-20T07:02:50.579Z,43.04
2023-07-20T07:03:49.012Z,43.04
2023-07-20T07:04:48.536Z,43.07
2023-07-20T07:05:51.298Z,43.03
2023-07-20T07:06:48.102Z,43.04
2023-07-20T07:07:48.133Z,43.06
2023-07-20T07:08:48.127Z,43.06
2023-07-20T07:09:48.644Z,43.05
2023-07-20T07:10:48.083Z,43.04
2023-07-20T07:11:48.089Z,43.05
2023-07-20T07:12:48.111Z,43.05
2023-07-20T07:13:48.172Z,43.01
2023-07-20T07:14:48.071Z,42.97
2023-07-20T07:15:48.060Z,42.99
2023-07-20T07:16:48.028Z,42.97
2023-07-20T07:17:48.020Z,42.99
2023-07-20T07:18:48.041Z,42.97
2023-07-20T07:19:49.918Z,42.95
2023-07-20T07:20:47.992Z,42.98
2023-07-20T07:21:47.965Z,42.91
2023-07-20T07:22:48.013Z,42.94
2023-07-20T07:23:47.992Z,42.88
2023-07-20T07:24:47.941Z,42.88
2023-07-20T07:25:47.940Z,42.85
2023-07-20T07:26:47.907Z,42.85
2023-07-20T07:27:47.888Z,42.85
2023-07-20T07:28:47.960Z,42.85
2023-07-20T07:29:48.015Z,42.82
2023-07-20T07:30:48.109Z,42.82
2023-07-20T07:31:48.052Z,42.80
2023-07-20T07:32:48.104Z,42.81
2023-07-20T07:33:48.120Z,42.77
2023-07-20T07:34:48.173Z,42.77
2023-07-20T07:35:48.195Z,42.74
2023-07-20T07:36:48.284Z,42.77
2023-07-20T07:38:02.943Z,42.70
2023-07-20T07:39:15.470Z,42.71
2023-07-20T07:39:49.256Z,42.72
2023-07-20T07:40:48.212Z,42.70
2023-07-20T07:41:48.215Z,42.70
2023-07-20T07:42:48.240Z,42.70
2023-07-20T07:43:48.215Z,42.66
2023-07-20T07:44:48.214Z,42.62
2023-07-20T07:45:48.221Z,42.61
2023-07-20T07:46:48.251Z,42.58
2023-07-20T07:47:48.208Z,42.61
2023-07-20T07:48:48.139Z,42.58
2023-07-20T07:49:48.181Z,42.60
2023-07-20T07:50:48.167Z,42.60
2023-07-20T07:51:48.192Z,42.56
2023-07-20T07:52:48.131Z,42.58
2023-07-20T07:53:48.191Z,42.50
2023-07-20T07:54:48.076Z,42.48
2023-07-20T07:55:48.068Z,42.51
2023-07-20T07:56:48.119Z,42.48
2023-07-20T07:57:48.097Z,42.45
2023-07-20T07:58:48.072Z,42.45
2023-07-20T07:59:48.056Z,42.41
2023-07-20T08:00:48.045Z,42.41
2023-07-20T08:01:48.045Z,42.39
2023-07-20T08:02:48.116Z,42.42
2023-07-20T08:03:48.030Z,42.39
2023-07-20T08:04:48.000Z,42.36
2023-07-20T08:05:48.035Z,42.37
2023-07-20T08:06:48.415Z,42.35
2023-07-20T08:07:47.978Z,42.35
2023-07-20T08:08:47.993Z,42.31
2023-07-20T08:09:47.996Z,42.36
2023-07-20T08:10:47.943Z,42.32
2023-07-20T08:11:47.943Z,42.30
2023-07-20T08:12:47.950Z,42.32
2023-07-20T08:13:47.964Z,42.33
2023-07-20T08:14:47.994Z,42.33
2023-07-20T08:15:48.046Z,42.33
2023-07-20T08:16:48.119Z,42.30
2023-07-20T08:17:48.320Z,42.26
2023-07-20T08:18:48.370Z,42.24
2023-07-20T08:19:48.175Z,42.22
2023-07-20T08:20:48.212Z,42.20
2023-07-20T08:21:48.217Z,42.16
2023-07-20T08:22:48.986Z,42.16
2023-07-20T08:23:48.298Z,42.16
2023-07-20T08:24:48.369Z,42.18
2023-07-20T08:25:48.335Z,42.19
2023-07-20T08:26:48.491Z,42.12
2023-07-20T08:27:48.431Z,42.10
2023-07-20T08:28:48.453Z,42.08
2023-07-20T08:29:48.461Z,42.08
2023-07-20T08:30:48.679Z,42.08
2023-07-20T08:31:48.647Z,42.04
2023-07-20T08:32:48.740Z,42.01
2023-07-20T08:33:48.640Z,41.98
2023-07-20T08:34:48.649Z,41.96
2023-07-20T08:35:48.763Z,42.02
2023-07-20T08:36:48.724Z,41.98
2023-07-20T08:37:48.742Z,41.97
2023-07-20T08:38:48.769Z,41.99
2023-07-20T08:39:48.815Z,41.95
2023-07-20T08:40:48.888Z,41.92
2023-07-20T08:41:48.894Z,41.98
2023-07-20T08:42:48.912Z,41.95
2023-07-20T08:43:48.938Z,41.95
2023-07-20T08:44:49.003Z,41.97
2023-07-20T08:45:49.051Z,41.86
2023-07-20T08:46:49.183Z,41.87
2023-07-20T08:47:49.093Z,41.90
2023-07-20T08:48:49.101Z,41.90
2023-07-20T08:49:49.115Z,41.87
2023-07-20T08:50:49.180Z,41.82
2023-07-20T08:51:49.203Z,41.78
2023-07-20T08:52:49.277Z,41.75
2023-07-20T08:53:49.305Z,41.74
2023-07-20T08:54:49.341Z,41.71
2023-07-20T08:55:49.358Z,41.76
2023-07-20T08:56:49.376Z,41.80
2023-07-20T08:57:49.438Z,41.78
2023-07-20T08:58:49.469Z,41.65
2023-07-20T08:59:49.471Z,41.60
2023-07-20T09:00:49.511Z,41.53
2023-07-20T09:01:49.493Z,41.65
2023-07-20T09:02:49.507Z,41.59
2023-07-20T09:03:49.503Z,41.65
2023-07-20T09:04:49.485Z,41.66
2023-07-20T09:05:49.531Z,41.64
2023-07-20T09:06:49.582Z,41.63
2023-07-20T09:07:49.609Z,41.61
2023-07-20T09:08:49.659Z,41.61
2023-07-20T09:09:49.682Z,41.60
2023-07-20T09:10:49.709Z,41.61
2023-07-20T09:11:49.744Z,41.62
2023-07-20T09:12:49.757Z,41.62
2023-07-20T09:13:52.071Z,41.61
2023-07-20T09:14:51.055Z,41.63
2023-07-20T09:15:49.852Z,41.59
2023-07-20T09:16:49.935Z,41.59
2023-07-20T09:17:50.025Z,41.60
2023-07-20T09:18:49.959Z,41.56
2023-07-20T09:19:50.001Z,41.55
2023-07-20T09:20:50.028Z,41.58
2023-07-20T09:21:50.037Z,41.55
2023-07-20T09:22:50.082Z,41.56
2023-07-20T09:23:50.107Z,41.54
2023-07-20T09:24:51.918Z,41.55
2023-07-20T09:25:51.300Z,41.52
2023-07-20T09:26:50.203Z,41.56
2023-07-20T09:27:52.164Z,41.44
2023-07-20T09:28:50.292Z,41.50
2023-07-20T09:29:50.255Z,41.54
2023-07-20T09:30:53.760Z,41.46
2023-07-20T09:32:01.203Z,41.45
2023-07-20T09:32:54.499Z,41.46
2023-07-20T09:34:50.250Z,41.46
2023-07-20T09:37:50.144Z,41.44
2023-07-20T09:41:50.111Z,41.32
2023-07-20T09:43:50.127Z,41.35
2023-07-20T09:44:50.184Z,41.28
2023-07-20T09:48:35.153Z,41.25
2023-07-20T09:50:50.002Z,41.31
2023-07-20T09:51:49.937Z,41.27
2023-07-20T09:53:49.885Z,41.18
2023-07-20T09:54:49.842Z,41.16
2023-07-20T09:55:49.851Z,41.16
2023-07-20T09:56:49.864Z,41.12
2023-07-20T09:57:49.790Z,41.22
2023-07-20T09:58:49.771Z,41.15
2023-07-20T09:59:49.766Z,41.16
2023-07-20T10:01:49.772Z,41.11
2023-07-20T10:02:49.765Z,41.08
2023-07-20T10:03:49.744Z,41.02
2023-07-20T10:04:49.715Z,41.00
2023-07-20T10:05:49.746Z,41.04
2023-07-20T10:06:49.671Z,40.99
2023-07-20T10:07:49.638Z,41.06
2023-07-20T10:09:49.665Z,41.06
2023-07-20T10:10:49.631Z,41.09
2023-07-20T10:11:57.620Z,41.04
2023-07-20T10:12:50.535Z,41.08
2023-07-20T10:13:49.537Z,41.07
2023-07-20T10:14:49.497Z,41.07
2023-07-20T10:15:49.600Z,41.07
2023-07-20T10:16:50.149Z,41.06
2023-07-20T10:17:50.722Z,41.08
2023-07-20T10:18:49.452Z,41.07
2023-07-20T10:21:51.316Z,41.12
2023-07-20T10:22:50.382Z,41.03
2023-07-20T10:23:49.324Z,40.95
2023-07-20T10:24:49.370Z,41.01
2023-07-20T10:25:49.326Z,41.08
2023-07-20T10:26:49.328Z,40.99
2023-07-20T10:27:49.315Z,40.92
2023-07-20T10:28:49.272Z,41.01
2023-07-20T10:29:49.277Z,40.90
2023-07-20T10:30:49.296Z,40.82
2023-07-20T10:31:49.291Z,40.80
2023-07-20T10:32:49.311Z,40.79
2023-07-20T10:33:49.213Z,40.79
2023-07-20T10:34:49.200Z,40.87
2023-07-20T10:35:49.196Z,40.83
2023-07-20T10:36:49.156Z,40.85
2023-07-20T10:37:49.170Z,40.92
2023-07-20T10:38:49.750Z,40.83
2023-07-20T10:39:49.227Z,40.82
2023-07-20T10:40:49.213Z,40.81
2023-07-20T10:41:49.244Z,40.76
2023-07-20T10:42:49.281Z,40.74
2023-07-20T10:43:49.331Z,40.76
2023-07-20T10:44:49.338Z,40.74
2023-07-20T10:45:49.428Z,40.76
2023-07-20T10:46:49.407Z,40.77
2023-07-20T10:47:50.082Z,40.77
2023-07-20T10:48:49.445Z,40.79
2023-07-20T10:49:49.481Z,40.78
2023-07-20T10:50:49.489Z,40.82
2023-07-20T10:51:49.590Z,40.85
2023-07-20T10:52:49.520Z,40.80
2023-07-20T10:53:49.581Z,40.79
2023-07-20T10:54:49.607Z,40.80
2023-07-20T10:55:49.604Z,40.83
2023-07-20T10:56:49.742Z,40.81
2023-07-20T10:57:49.664Z,40.79
2023-07-20T10:58:49.672Z,40.80
2023-07-20T10:59:50.041Z,40.86
2023-07-20T11:00:52.248Z,40.81
2023-07-20T11:01:49.731Z,40.84
2023-07-20T11:02:50.942Z,40.81
2023-07-20T11:03:49.746Z,40.83
2023-07-20T11:04:50.339Z,40.85
2023-07-20T11:05:49.649Z,40.91
2023-07-20T11:06:50.621Z,40.83
2023-07-20T11:07:49.651Z,40.79
2023-07-20T11:08:51.143Z,40.77
2023-07-20T11:09:50.890Z,40.73
2023-07-20T11:10:49.600Z,40.80
2023-07-20T11:11:49.619Z,40.78
2023-07-20T11:12:49.592Z,40.82
2023-07-20T11:13:49.571Z,40.83
2023-07-20T11:14:49.647Z,40.81
2023-07-20T11:15:49.677Z,40.72
2023-07-20T11:16:49.679Z,40.72
2023-07-20T11:17:49.734Z,40.69
2023-07-20T11:18:49.733Z,40.73
2023-07-20T11:20:49.738Z,40.76
2023-07-20T11:22:00.393Z,40.72
2023-07-20T11:22:50.738Z,40.68
2023-07-20T11:23:49.704Z,40.71
2023-07-20T11:24:49.726Z,40.77
2023-07-20T11:25:49.699Z,40.78
2023-07-20T11:26:49.655Z,40.74
2023-07-20T11:27:49.644Z,40.65
2023-07-20T11:28:49.661Z,40.64
2023-07-20T11:29:49.614Z,40.61
2023-07-20T11:30:49.615Z,40.58
2023-07-20T11:31:49.613Z,40.52
2023-07-20T11:32:49.643Z,40.60
2023-07-20T11:33:49.554Z,40.55
2023-07-20T11:34:49.547Z,40.59
2023-07-20T11:35:49.495Z,40.57
2023-07-20T11:37:49.468Z,40.55
2023-07-20T11:38:49.482Z,40.58
2023-07-20T11:39:49.472Z,40.64
2023-07-20T11:40:49.472Z,40.65
2023-07-20T11:41:49.429Z,40.65
2023-07-20T11:43:49.423Z,40.64
2023-07-20T11:44:49.462Z,40.59
2023-07-20T11:45:49.360Z,40.58
2023-07-20T11:46:49.452Z,40.57
2023-07-20T11:47:49.404Z,40.58
2023-07-20T11:48:49.305Z,40.59
2023-07-20T11:49:49.327Z,40.61
2023-07-20T11:50:49.309Z,40.62
2023-07-20T11:51:49.276Z,40.57
2023-07-20T11:52:49.275Z,40.60
2023-07-20T11:53:49.265Z,40.58
2023-07-20T11:54:50.052Z,40.57
2023-07-20T11:55:49.229Z,40.61
2023-07-20T11:56:49.528Z,40.60
2023-07-20T11:57:49.448Z,40.53
2023-07-20T11:58:49.151Z,40.49
2023-07-20T11:59:49.143Z,40.53
2023-07-20T12:00:49.140Z,40.54
2023-07-20T12:01:49.198Z,40.56
2023-07-20T12:02:49.180Z,40.49
2023-07-20T12:03:49.123Z,40.45
2023-07-20T12:04:49.132Z,40.49
2023-07-20T12:06:01.121Z,40.45
2023-07-20T12:06:50.136Z,40.45
2023-07-20T12:07:49.079Z,40.46
2023-07-20T12:08:49.082Z,40.44
2023-07-20T12:09:52.022Z,40.44
2023-07-20T12:10:49.024Z,40.51
2023-07-20T12:11:49.026Z,40.46
2023-07-20T12:12:48.993Z,40.49
2023-07-20T12:13:48.967Z,40.52
2023-07-20T12:14:48.958Z,40.45
2023-07-20T12:15:48.951Z,40.46
2023-07-20T12:16:49.040Z,40.36
2023-07-20T12:17:49.039Z,40.38
2023-07-20T12:18:48.936Z,40.37
2023-07-20T12:19:48.927Z,40.26
2023-07-20T12:20:48.882Z,40.25
2023-07-20T12:21:48.894Z,40.28
2023-07-20T12:22:48.847Z,40.22
2023-07-20T12:23:48.881Z,40.16
2023-07-20T12:24:48.846Z,40.25
2023-07-20T12:25:48.945Z,40.25
2023-07-20T12:26:48.812Z,40.27
2023-07-20T12:27:48.827Z,40.23
2023-07-20T12:28:48.775Z,40.25
2023-07-20T12:29:48.777Z,40.30
2023-07-20T12:30:48.775Z,40.25
2023-07-20T12:31:48.847Z,40.27
2023-07-20T12:32:48.780Z,40.34
2023-07-20T12:33:48.699Z,40.36
2023-07-20T12:34:48.745Z,40.30
2023-07-20T12:35:48.681Z,40.40
2023-07-20T12:36:48.692Z,40.26
2023-07-20T12:37:48.671Z,40.28
2023-07-20T12:38:48.669Z,40.28
2023-07-20T12:39:48.675Z,40.28
2023-07-20T12:40:48.612Z,40.23
2023-07-20T12:41:48.647Z,40.19
2023-07-20T12:42:48.587Z,40.23
2023-07-20T12:43:48.574Z,40.21
2023-07-20T12:44:48.571Z,40.19
2023-07-20T12:45:48.575Z,40.12
2023-07-20T12:46:48.538Z,40.27
2023-07-20T12:47:48.536Z,40.28
2023-07-20T12:48:50.178Z,40.19
2023-07-20T12:49:48.474Z,40.11
2023-07-20T12:50:48.479Z,40.10
2023-07-20T12:51:48.445Z,40.14
2023-07-20T12:52:48.483Z,40.10
2023-07-20T12:53:48.433Z,40.13
2023-07-20T12:54:48.425Z,40.11
2023-07-20T12:55:48.392Z,40.12
2023-07-20T12:57:48.382Z,40.07
2023-07-20T12:58:48.376Z,40.03
2023-07-20T12:59:48.360Z,40.03
2023-07-20T13:00:48.351Z,40.01
2023-07-20T13:01:48.359Z,39.93
2023-07-20T13:02:48.438Z,40.00
2023-07-20T13:04:48.307Z,39.94
2023-07-20T13:06:48.308Z,39.91
2023-07-20T13:08:48.238Z,40.01
2023-07-20T13:09:48.214Z,40.00
2023-07-20T13:10:48.193Z,39.96
2023-07-20T13:11:48.224Z,40.02
2023-07-20T13:12:48.181Z,40.03
2023-07-20T13:13:48.165Z,40.01
2023-07-20T13:14:48.156Z,39.98
2023-07-20T13:15:48.159Z,40.05
2023-07-20T13:16:48.203Z,39.99
2023-07-20T13:17:48.135Z,39.97
2023-07-20T13:18:48.098Z,39.97
2023-07-20T13:19:48.486Z,39.90
2023-07-20T13:20:48.087Z,39.91
2023-07-20T13:21:48.670Z,39.91
2023-07-20T13:22:48.064Z,39.93
2023-07-20T13:23:48.022Z,39.97